createdAt,value
2023-03-31T00:01:30.657Z,6.95
2023-03-31T00:04:04.985Z,6.97
2023-03-31T00:06:38.364Z,7.38
2023-03-31T00:09:09.592Z,7.07
2023-03-31T00:11:41.906Z,6.65
2023-03-31T00:14:11.040Z,6.72
2023-03-31T00:16:40.777Z,7.20
2023-03-31T00:19:18.096Z,6.90
2023-03-31T00:21:49.190Z,6.97
2023-03-31T00:24:18.220Z,7.13
2023-03-31T00:26:48.109Z,7.05
2023-03-31T00:29:16.557Z,6.78
2023-03-31T00:31:45.129Z,7.20
2023-03-31T00:34:13.529Z,7.28
2023-03-31T00:36:45.981Z,6.47
2023-03-31T00:39:16.810Z,6.47
2023-03-31T00:41:47.438Z,6.63
2023-03-31T00:44:24.514Z,6.97
2023-03-31T00:46:56.762Z,6.80
2023-03-31T00:49:30.384Z,6.57
2023-03-31T00:52:05.370Z,6.68
2023-03-31T00:54:35.862Z,6.75
2023-03-31T00:57:07.649Z,6.72
2023-03-31T00:59:43.410Z,6.70
2023-03-31T01:02:14.810Z,6.60
2023-03-31T01:04:50.367Z,6.60
2023-03-31T01:07:25.895Z,5.90
2023-03-31T01:10:00.461Z,6.25
2023-03-31T01:12:32.986Z,6.40
2023-03-31T01:15:04.706Z,6.60
2023-03-31T01:17:34.858Z,7.05
2023-03-31T01:20:18.399Z,6.60
2023-03-31T01:23:16.838Z,6.70
2023-03-31T01:26:29.451Z,6.35
2023-03-31T01:29:08.795Z,6.28
2023-03-31T01:32:06.251Z,5.97
2023-03-31T01:35:10.078Z,6.55
2023-03-31T01:38:08.141Z,6.80
2023-03-31T01:40:59.216Z,6.07
2023-03-31T01:43:37.784Z,6.13
2023-03-31T01:46:15.864Z,6.43
2023-03-31T01:48:55.580Z,5.57
2023-03-31T01:51:33.474Z,6.30
2023-03-31T01:54:13.074Z,7.03
2023-03-31T01:56:47.698Z,5.72
2023-03-31T01:59:24.024Z,6.75
2023-03-31T02:01:58.754Z,6.63
2023-03-31T02:04:32.941Z,6.25
2023-03-31T02:07:06.276Z,6.38
2023-03-31T02:09:38.169Z,6.20
2023-03-31T02:12:13.590Z,6.07
2023-03-31T02:14:46.440Z,6.30
2023-03-31T02:17:19.645Z,6.53
2023-03-31T02:19:51.723Z,5.93
2023-03-31T02:22:23.992Z,6.07
2023-03-31T02:24:55.769Z,6.05
2023-03-31T02:27:29.719Z,6.43
2023-03-31T02:29:59.846Z,5.97
2023-03-31T02:32:33.607Z,5.70
2023-03-31T02:35:02.438Z,5.90
2023-03-31T02:37:32.202Z,6.30
2023-03-31T02:40:05.015Z,6.30
2023-03-31T02:42:35.321Z,6.00
2023-03-31T02:45:05.229Z,5.95
2023-03-31T02:47:34.990Z,6.50
2023-03-31T02:50:06.084Z,6.18
2023-03-31T02:52:49.946Z,6.25
2023-03-31T02:55:38.844Z,5.65
2023-03-31T02:58:35.758Z,5.82
2023-03-31T03:01:36.827Z,5.97
2023-03-31T03:04:25.849Z,6.38
2023-03-31T03:07:02.669Z,5.82
2023-03-31T03:09:44.644Z,6.35
2023-03-31T03:14:54.759Z,5.40
2023-03-31T03:17:28.359Z,5.75
2023-03-31T03:20:01.593Z,5.75
2023-03-31T03:22:30.257Z,6.05
2023-03-31T03:24:58.921Z,5.30
2023-03-31T03:27:28.493Z,5.43
2023-03-31T03:29:58.633Z,6.03
2023-03-31T03:32:27.109Z,5.90
2023-03-31T03:34:56.665Z,5.07
2023-03-31T03:37:25.251Z,5.75
2023-03-31T03:39:53.824Z,6.03
2023-03-31T03:42:22.295Z,5.70
2023-03-31T03:44:51.105Z,5.82
2023-03-31T03:47:21.281Z,6.22
2023-03-31T03:49:50.291Z,5.90
2023-03-31T03:52:18.980Z,6.03
2023-03-31T03:54:47.811Z,5.50
2023-03-31T03:57:16.968Z,6.18
2023-03-31T03:59:45.673Z,5.65
2023-03-31T04:02:14.527Z,5.68
2023-03-31T04:04:44.619Z,5.65
2023-03-31T04:07:13.678Z,5.80
2023-03-31T04:09:42.156Z,5.38
2023-03-31T04:12:11.288Z,5.97
2023-03-31T04:14:40.933Z,6.75
2023-03-31T04:17:10.870Z,7.47
2023-03-31T04:19:42.363Z,7.45
2023-03-31T04:24:46.098Z,5.93
2023-03-31T04:27:17.565Z,6.13
2023-03-31T04:29:54.849Z,5.43
2023-03-31T04:32:24.573Z,6.53
2023-03-31T04:37:35.082Z,6.05
2023-03-31T04:42:38.948Z,4.65
2023-03-31T04:45:08.433Z,5.68
2023-03-31T04:47:37.297Z,5.88
2023-03-31T04:50:07.171Z,5.38
2023-03-31T04:52:37.301Z,6.32
2023-03-31T04:55:07.875Z,5.93
2023-03-31T04:57:37.346Z,5.78
2023-03-31T05:00:08.163Z,5.70
2023-03-31T05:02:37.047Z,5.33
2023-03-31T05:05:07.257Z,5.60
2023-03-31T05:07:37.379Z,4.85
2023-03-31T05:10:07.869Z,4.57
2023-03-31T05:12:36.807Z,5.68
2023-03-31T05:15:06.616Z,4.80
2023-03-31T05:17:36.652Z,4.68
2023-03-31T05:20:08.329Z,4.75
2023-03-31T05:22:41.859Z,4.75
2023-03-31T05:25:14.639Z,5.35
2023-03-31T05:27:44.400Z,5.22
2023-03-31T05:30:13.681Z,4.45
2023-03-31T05:32:42.921Z,5.30
2023-03-31T05:35:12.188Z,5.30
2023-03-31T05:37:42.422Z,5.07
2023-03-31T05:40:12.205Z,5.05
2023-03-31T05:42:42.027Z,5.03
2023-03-31T05:45:10.900Z,5.00
2023-03-31T05:47:39.916Z,5.35
2023-03-31T05:50:09.496Z,5.07
2023-03-31T05:52:38.505Z,5.03
2023-03-31T05:55:10.286Z,4.75
2023-03-31T05:57:38.906Z,4.78
2023-03-31T06:00:11.583Z,5.15
2023-03-31T06:02:41.988Z,4.72
2023-03-31T06:05:11.067Z,5.43
2023-03-31T06:07:39.859Z,5.03
2023-03-31T06:10:11.441Z,5.78
2023-03-31T06:12:40.193Z,5.38
2023-03-31T06:15:09.829Z,6.13
2023-03-31T06:17:39.368Z,6.20
2023-03-31T06:20:20.121Z,6.03
2023-03-31T06:22:55.650Z,6.00
2023-03-31T06:25:26.003Z,5.75
2023-03-31T06:27:54.718Z,5.57
2023-03-31T06:30:23.372Z,5.88
2023-03-31T06:32:52.087Z,6.53
2023-03-31T06:35:21.088Z,5.72
2023-03-31T06:37:50.070Z,6.80
2023-03-31T06:40:19.365Z,7.07
2023-03-31T06:42:49.337Z,6.07
2023-03-31T06:45:19.002Z,7.45
2023-03-31T06:47:47.709Z,7.38
2023-03-31T06:50:16.890Z,6.32
2023-03-31T06:52:45.891Z,6.38
2023-03-31T06:55:16.121Z,6.53
2023-03-31T06:57:45.196Z,6.90
2023-03-31T07:00:17.917Z,7.15
2023-03-31T07:02:47.468Z,6.75
2023-03-31T07:05:16.845Z,6.57
2023-03-31T07:07:46.438Z,5.80
2023-03-31T07:10:15.707Z,5.78
2023-03-31T07:12:44.896Z,5.57
2023-03-31T07:15:15.404Z,5.28
2023-03-31T07:17:44.158Z,5.55
2023-03-31T07:20:15.504Z,5.70
2023-03-31T07:22:45.050Z,5.95
2023-03-31T07:25:15.617Z,5.78
2023-03-31T07:27:45.163Z,5.78
2023-03-31T07:30:18.940Z,5.03
2023-03-31T07:32:48.451Z,5.53
2023-03-31T07:35:18.678Z,5.32
2023-03-31T07:37:48.840Z,5.72
2023-03-31T07:40:19.887Z,5.20
2023-03-31T07:42:49.548Z,5.33
2023-03-31T07:45:20.843Z,5.90
2023-03-31T07:47:50.112Z,5.28
2023-03-31T07:50:19.231Z,5.30
2023-03-31T07:52:49.585Z,5.78
2023-03-31T07:55:20.158Z,5.15
2023-03-31T07:57:49.143Z,5.38
2023-03-31T08:00:20.577Z,4.85
2023-03-31T08:05:21.189Z,4.72
2023-03-31T08:07:51.583Z,4.18
2023-03-31T08:10:22.513Z,4.25
2023-03-31T08:12:51.602Z,3.97
2023-03-31T08:15:23.315Z,3.22
2023-03-31T08:17:52.241Z,3.83
2023-03-31T08:20:23.967Z,3.70
2023-03-31T08:25:22.180Z,3.15
2023-03-31T08:27:52.085Z,2.58
2023-03-31T08:30:22.336Z,3.28
2023-03-31T08:32:51.156Z,2.83
2023-03-31T08:35:19.788Z,2.72
2023-03-31T08:37:48.457Z,2.88
2023-03-31T08:40:22.386Z,2.28
2023-03-31T08:42:54.586Z,2.70
2023-03-31T08:45:29.050Z,2.22
2023-03-31T08:48:02.056Z,2.10
2023-03-31T08:50:33.864Z,2.42
2023-03-31T08:55:42.160Z,2.05
2023-03-31T08:58:20.178Z,2.70
2023-03-31T09:00:56.324Z,2.50
2023-03-31T09:03:32.921Z,2.80
2023-03-31T09:06:04.344Z,2.83
2023-03-31T09:08:35.791Z,3.08
2023-03-31T09:11:15.301Z,2.67
2023-03-31T09:14:14.309Z,2.90
2023-03-31T09:16:52.129Z,2.40
2023-03-31T09:19:37.677Z,2.03
2023-03-31T09:22:13.459Z,2.33
2023-03-31T09:24:52.159Z,2.03
2023-03-31T09:27:22.440Z,2.20
2023-03-31T09:29:54.986Z,2.47
2023-03-31T09:32:27.632Z,2.05
2023-03-31T09:35:01.230Z,2.08
2023-03-31T09:37:36.055Z,2.20
2023-03-31T09:40:08.182Z,2.30
2023-03-31T09:42:38.240Z,2.42
2023-03-31T09:45:08.187Z,2.35
2023-03-31T09:47:43.044Z,2.00
2023-03-31T09:50:12.318Z,2.20
2023-03-31T09:52:44.158Z,2.50
2023-03-31T09:55:35.906Z,2.35
2023-03-31T09:58:09.260Z,2.53
2023-03-31T10:00:38.220Z,1.92
2023-03-31T10:03:08.809Z,2.60
2023-03-31T10:05:40.335Z,2.25
2023-03-31T10:08:21.466Z,2.38
2023-03-31T10:10:52.126Z,2.00
2023-03-31T10:13:24.443Z,4.82
2023-03-31T10:16:03.646Z,3.13
2023-03-31T10:18:37.508Z,2.40
2023-03-31T10:21:09.540Z,2.53
2023-03-31T10:23:39.284Z,2.97
2023-03-31T10:26:20.282Z,2.20
2023-03-31T10:28:52.790Z,2.10
2023-03-31T10:31:26.028Z,2.30
2023-03-31T10:33:58.544Z,1.83
2023-03-31T10:36:29.843Z,1.90
2023-03-31T10:38:59.388Z,2.03
2023-03-31T10:41:30.489Z,2.03
2023-03-31T10:44:01.452Z,1.90
2023-03-31T10:46:44.417Z,1.77
2023-03-31T10:49:25.322Z,2.35
2023-03-31T10:51:55.322Z,1.75
2023-03-31T10:54:24.262Z,1.60
2023-03-31T10:56:55.666Z,1.60
2023-03-31T10:59:54.268Z,2.00
2023-03-31T11:02:51.979Z,1.90
2023-03-31T11:05:29.733Z,1.90
2023-03-31T11:08:13.597Z,1.70
2023-03-31T11:11:03.801Z,2.00
2023-03-31T11:13:40.068Z,3.60
2023-03-31T11:16:19.145Z,1.88
2023-03-31T11:19:02.282Z,1.63
2023-03-31T11:21:44.211Z,1.60
2023-03-31T11:24:24.327Z,2.10
2023-03-31T11:27:01.155Z,1.60
2023-03-31T11:29:37.796Z,1.83
2023-03-31T11:32:32.482Z,1.80
2023-03-31T11:35:38.785Z,1.63
2023-03-31T11:38:27.093Z,1.50
2023-03-31T11:41:03.501Z,1.65
2023-03-31T11:43:36.775Z,1.50
2023-03-31T11:46:10.277Z,1.92
2023-03-31T11:48:46.189Z,1.65
2023-03-31T11:51:19.659Z,1.50
2023-03-31T11:53:53.297Z,1.45
2023-03-31T11:56:23.147Z,1.77
2023-03-31T11:58:56.425Z,1.48
2023-03-31T12:01:32.331Z,1.30
2023-03-31T12:04:06.580Z,2.00
2023-03-31T12:06:40.086Z,1.33
2023-03-31T12:09:17.801Z,1.30
2023-03-31T12:11:53.718Z,1.15
2023-03-31T12:14:31.337Z,1.10
2023-03-31T12:17:03.678Z,1.10
2023-03-31T12:19:41.276Z,1.42
2023-03-31T12:22:15.680Z,1.50
2023-03-31T12:24:47.145Z,1.13
2023-03-31T12:27:22.295Z,1.42
2023-03-31T12:29:59.488Z,1.40
2023-03-31T12:32:32.656Z,1.52
2023-03-31T12:35:08.410Z,1.67
2023-03-31T12:38:12.057Z,1.30
2023-03-31T12:40:52.517Z,1.30
2023-03-31T12:43:48.460Z,1.33
2023-03-31T12:46:31.387Z,1.50
2023-03-31T12:49:16.079Z,1.55
2023-03-31T12:51:59.574Z,1.75
2023-03-31T12:54:48.964Z,1.70
2023-03-31T12:57:23.595Z,1.35
2023-03-31T13:00:26.553Z,1.50
2023-03-31T13:03:28.670Z,1.42
2023-03-31T13:05:57.549Z,1.50
2023-03-31T13:08:56.628Z,1.73
2023-03-31T13:11:39.951Z,1.60
2023-03-31T13:14:19.075Z,1.30
2023-03-31T13:16:48.915Z,1.00
2023-03-31T13:19:29.406Z,1.30
2023-03-31T13:21:59.909Z,1.20
2023-03-31T13:24:31.236Z,1.20
2023-03-31T13:27:01.436Z,1.17
2023-03-31T13:29:44.061Z,1.35
2023-03-31T13:32:23.721Z,1.70
2023-03-31T13:35:04.686Z,1.27
2023-03-31T13:37:58.514Z,1.60
2023-03-31T13:40:57.394Z,1.88
2023-03-31T13:44:16.597Z,1.90
2023-03-31T13:47:19.126Z,2.00
2023-03-31T13:49:57.814Z,1.60
2023-03-31T13:52:46.066Z,1.92
2023-03-31T13:55:37.076Z,1.70
2023-03-31T13:58:41.733Z,1.73
2023-03-31T14:01:43.294Z,1.88
2023-03-31T14:04:41.133Z,1.63
2023-03-31T14:07:14.731Z,1.40
2023-03-31T14:09:49.979Z,1.38
2023-03-31T14:12:24.634Z,1.60
2023-03-31T14:14:56.091Z,1.60
2023-03-31T14:17:29.121Z,2.13
2023-03-31T14:20:30.353Z,1.75
2023-03-31T14:23:11.118Z,1.55
2023-03-31T14:25:51.839Z,1.35
2023-03-31T14:28:38.055Z,1.33
2023-03-31T14:31:21.166Z,1.23
2023-03-31T14:34:04.817Z,1.40
2023-03-31T14:36:42.286Z,1.60
2023-03-31T14:39:13.366Z,1.67
2023-03-31T14:41:45.121Z,1.80
2023-03-31T14:44:17.196Z,1.80
2023-03-31T14:46:48.183Z,2.28
2023-03-31T14:49:23.686Z,2.05
2023-03-31T14:51:56.353Z,1.88
2023-03-31T14:54:25.383Z,2.05
2023-03-31T14:56:56.881Z,2.28
2023-03-31T14:59:30.062Z,1.85
2023-03-31T15:02:00.515Z,2.33
2023-03-31T15:04:41.951Z,2.97
2023-03-31T15:07:14.142Z,2.83
2023-03-31T15:09:50.874Z,4.53
2023-03-31T15:12:22.250Z,4.15
2023-03-31T15:14:53.519Z,3.65
2023-03-31T15:17:24.623Z,3.28
2023-03-31T15:19:58.087Z,2.90
2023-03-31T15:22:33.235Z,2.70
2023-03-31T15:25:02.461Z,2.88
2023-03-31T15:27:38.090Z,2.65
2023-03-31T15:30:10.253Z,2.80
2023-03-31T15:32:41.478Z,3.40
2023-03-31T15:35:22.948Z,2.83
2023-03-31T15:37:55.499Z,3.25
2023-03-31T15:40:27.408Z,3.92
2023-03-31T15:45:50.255Z,3.63
2023-03-31T15:48:23.080Z,3.53
2023-03-31T15:50:53.402Z,3.33
2023-03-31T15:53:31.103Z,3.70
2023-03-31T15:56:02.023Z,3.13
2023-03-31T15:58:56.750Z,3.60
2023-03-31T16:01:33.103Z,3.22
2023-03-31T16:04:04.124Z,3.67
2023-03-31T16:06:41.050Z,3.08
2023-03-31T16:09:14.857Z,3.95
2023-03-31T16:11:48.706Z,4.15
2023-03-31T16:14:22.138Z,4.45
2023-03-31T16:16:54.509Z,4.38
2023-03-31T16:19:26.555Z,4.18
2023-03-31T16:21:59.754Z,4.65
2023-03-31T16:24:34.135Z,4.32
2023-03-31T16:27:08.118Z,6.43
2023-03-31T16:29:38.859Z,7.93
2023-03-31T16:32:12.315Z,9.25
2023-03-31T16:34:54.876Z,9.98
2023-03-31T16:37:23.761Z,9.25
2023-03-31T16:39:53.950Z,8.82
2023-03-31T16:42:23.145Z,8.35
2023-03-31T16:45:09.538Z,8.40
2023-03-31T16:47:44.525Z,8.15
2023-03-31T16:50:15.412Z,6.60
2023-03-31T16:52:45.653Z,5.85
2023-03-31T16:55:16.217Z,5.63
2023-03-31T16:57:46.221Z,5.25
2023-03-31T17:00:16.337Z,5.97
2023-03-31T17:02:46.305Z,5.65
2023-03-31T17:05:15.960Z,6.03
2023-03-31T17:07:44.960Z,6.55
2023-03-31T17:10:16.783Z,6.85
2023-03-31T17:12:45.857Z,8.90
2023-03-31T17:15:14.809Z,7.72
2023-03-31T17:17:43.704Z,8.13
2023-03-31T17:20:13.432Z,9.15
2023-03-31T17:22:42.456Z,13.27
2023-03-31T17:25:11.636Z,31.42
2023-03-31T17:27:42.403Z,37.35
2023-03-31T17:30:11.847Z,16.17
2023-03-31T17:32:41.508Z,9.48
2023-03-31T17:35:11.780Z,4.47
2023-03-31T17:37:40.223Z,4.03
2023-03-31T17:40:11.174Z,2.92
2023-03-31T17:42:41.501Z,3.00
2023-03-31T17:45:12.191Z,2.67
2023-03-31T17:47:41.616Z,2.72
2023-03-31T17:50:12.141Z,2.70
2023-03-31T17:52:41.066Z,2.63
2023-03-31T17:55:10.384Z,2.70
2023-03-31T17:57:40.897Z,2.60
2023-03-31T18:00:15.211Z,2.58
2023-03-31T18:02:44.625Z,2.50
2023-03-31T18:05:15.160Z,2.83
2023-03-31T18:10:14.681Z,2.60
2023-03-31T18:12:46.877Z,2.10
2023-03-31T18:15:17.041Z,2.38
2023-03-31T18:17:45.738Z,2.42
2023-03-31T18:20:14.635Z,2.38
2023-03-31T18:22:43.490Z,3.08
2023-03-31T18:25:13.285Z,2.33
2023-03-31T18:27:42.205Z,1.80
2023-03-31T18:30:11.676Z,2.00
2023-03-31T18:32:42.233Z,1.65
2023-03-31T18:35:11.508Z,1.88
2023-03-31T18:37:40.852Z,2.00
2023-03-31T18:40:11.381Z,2.13
2023-03-31T18:42:40.862Z,2.13
2023-03-31T18:45:11.293Z,2.35
2023-03-31T18:47:41.817Z,2.50
2023-03-31T18:50:13.556Z,2.80
2023-03-31T18:55:12.407Z,2.45
2023-03-31T18:57:41.679Z,3.17
2023-03-31T19:00:12.055Z,2.90
2023-03-31T19:02:42.729Z,3.03
2023-03-31T19:05:11.947Z,3.20
2023-03-31T19:07:41.338Z,3.88
2023-03-31T19:10:12.034Z,4.45
2023-03-31T19:12:41.138Z,3.97
2023-03-31T19:15:11.635Z,5.00
2023-03-31T19:17:42.639Z,5.47
2023-03-31T19:20:16.562Z,4.90
2023-03-31T19:22:46.844Z,4.78
2023-03-31T19:25:18.487Z,5.15
2023-03-31T19:27:50.449Z,4.30
2023-03-31T19:30:21.523Z,4.68
2023-03-31T19:32:53.888Z,4.43
2023-03-31T19:35:24.104Z,4.65
2023-03-31T19:37:55.093Z,5.22
2023-03-31T19:40:33.194Z,5.15
2023-03-31T19:43:02.983Z,4.70
2023-03-31T19:45:32.484Z,5.53
2023-03-31T19:48:02.927Z,5.88
2023-03-31T19:50:32.928Z,6.03
2023-03-31T19:53:02.579Z,7.07
2023-03-31T19:55:35.082Z,7.22
2023-03-31T19:58:04.475Z,7.75
2023-03-31T20:00:35.478Z,7.85
2023-03-31T20:03:07.373Z,7.53
2023-03-31T20:05:37.244Z,7.03
2023-03-31T20:08:06.147Z,7.45
2023-03-31T20:10:35.382Z,7.53
2023-03-31T20:13:04.428Z,7.18
2023-03-31T20:15:33.440Z,7.45
2023-03-31T20:18:03.182Z,7.38
2023-03-31T20:20:41.273Z,7.05
2023-03-31T20:23:09.867Z,7.70
2023-03-31T20:25:39.020Z,8.48
2023-03-31T20:28:08.296Z,8.93
2023-03-31T20:30:39.545Z,8.82
2023-03-31T20:33:08.622Z,10.50
2023-03-31T20:35:38.774Z,10.25
2023-03-31T20:38:07.330Z,10.48
2023-03-31T20:40:36.819Z,8.77
2023-03-31T20:43:05.336Z,9.25
2023-03-31T20:45:34.172Z,9.15
2023-03-31T20:48:03.689Z,9.13
2023-03-31T20:50:35.925Z,8.02
2023-03-31T20:53:06.278Z,7.10
2023-03-31T20:55:35.305Z,8.82
2023-03-31T20:58:04.894Z,9.77
2023-03-31T21:00:34.147Z,8.57
2023-03-31T21:03:04.409Z,10.85
2023-03-31T21:05:34.065Z,11.00
2023-03-31T21:08:03.504Z,10.80
2023-03-31T21:10:33.494Z,10.20
2023-03-31T21:13:02.794Z,9.52
2023-03-31T21:15:32.054Z,7.95
2023-03-31T21:18:02.444Z,7.20
2023-03-31T21:20:32.759Z,7.68
2023-03-31T21:23:03.054Z,10.55
2023-03-31T21:25:34.406Z,11.60
2023-03-31T21:30:33.517Z,7.40
2023-03-31T21:33:03.197Z,7.63
2023-03-31T21:35:32.390Z,7.25
2023-03-31T21:38:03.117Z,6.25
2023-03-31T21:40:36.628Z,6.18
2023-03-31T21:43:05.738Z,5.63
2023-03-31T21:45:37.010Z,6.43
2023-03-31T21:48:06.181Z,6.32
2023-03-31T21:50:34.994Z,5.38
2023-03-31T21:53:04.936Z,6.68
2023-03-31T21:55:37.649Z,6.22
2023-03-31T21:58:07.554Z,5.13
2023-03-31T22:00:37.473Z,5.80
2023-03-31T22:03:25.785Z,5.38
2023-03-31T22:05:55.114Z,5.93
2023-03-31T22:08:23.994Z,5.05
2023-03-31T22:10:55.292Z,5.10
2023-03-31T22:13:25.706Z,4.57
2023-03-31T22:15:54.928Z,4.20
2023-03-31T22:18:24.304Z,4.43
2023-03-31T22:20:53.948Z,5.50
2023-03-31T22:23:23.302Z,5.60
2023-03-31T22:25:53.553Z,5.65
2023-03-31T22:28:22.701Z,5.68
2023-03-31T22:30:52.374Z,5.60
2023-03-31T22:33:21.087Z,5.13
2023-03-31T22:35:50.673Z,4.68
2023-03-31T22:38:19.923Z,4.28
2023-03-31T22:40:49.659Z,4.53
2023-03-31T22:43:20.239Z,5.03
2023-03-31T22:45:48.692Z,4.45
2023-03-31T22:48:18.496Z,4.55
2023-03-31T22:50:47.540Z,3.92
2023-03-31T22:53:17.052Z,4.35
2023-03-31T22:55:53.914Z,4.13
2023-03-31T22:58:24.854Z,4.55
2023-03-31T23:00:57.560Z,4.75
2023-03-31T23:03:27.494Z,3.90
2023-03-31T23:05:56.440Z,3.83
2023-03-31T23:08:26.473Z,4.00
2023-03-31T23:10:56.720Z,4.07
2023-03-31T23:13:27.987Z,4.05
2023-03-31T23:15:56.587Z,3.67
2023-03-31T23:18:25.847Z,4.28
2023-03-31T23:20:55.050Z,4.47
2023-03-31T23:23:24.031Z,4.75
2023-03-31T23:25:52.943Z,4.80
2023-03-31T23:28:21.974Z,5.47
2023-03-31T23:30:56.964Z,4.88
2023-03-31T23:33:25.927Z,5.10
2023-03-31T23:36:00.277Z,4.88
2023-03-31T23:38:29.244Z,5.18
2023-03-31T23:40:59.676Z,5.18
2023-03-31T23:43:28.954Z,4.68
2023-03-31T23:45:59.350Z,4.55
2023-03-31T23:48:28.562Z,4.75
2023-03-31T23:50:57.364Z,4.82
2023-03-31T23:55:58.973Z,5.28
2023-03-31T23:58:28.012Z,4.88
